Time;durP1;ratioP1;P1;durP2;ratioP2;P2;SDS_P1;SDS_P2;PMS_P1;PMS_P2;Temp;Humidity;BMP_temperature;BMP_pressure;BME280_temperature;BME280_humidity;BME280_pressure;Samples;Min_cycle;Max_cycle;Signal;HPM_P1;HPM_P2
2020/12/31 00:00:36;;;;;;;3.90;3.50;;;6.00;47.40;;;;;;5011749;28;20188;-66
2020/12/31 00:03:01;;;;;;;3.90;3.60;;;6.10;46.40;;;;;;5011288;28;20176;-66
2020/12/31 00:05:27;;;;;;;5.00;3.83;;;6.10;46.80;;;;;;5011438;28;20827;-66
2020/12/31 00:07:52;;;;;;;4.00;3.70;;;6.40;46.30;;;;;;5011277;28;20207;-66
2020/12/31 00:10:18;;;;;;;3.70;3.40;;;6.60;46.00;;;;;;5011196;28;20207;-66
2020/12/31 00:12:43;;;;;;;3.83;3.27;;;6.70;44.90;;;;;;5011200;28;20655;-66
2020/12/31 00:15:09;;;;;;;5.40;3.97;;;6.40;46.00;;;;;;5011547;28;20279;-65
2020/12/31 00:17:34;;;;;;;4.17;3.87;;;6.20;47.10;;;;;;5011284;28;20195;-65
2020/12/31 00:20:00;;;;;;;4.40;4.00;;;6.30;46.80;;;;;;5011481;28;20252;-65
2020/12/31 00:22:26;;;;;;;4.47;4.17;;;6.30;46.00;;;;;;5011551;28;20249;-66
2020/12/31 00:24:51;;;;;;;4.57;4.27;;;6.30;45.30;;;;;;5010605;28;20209;-65
2020/12/31 00:27:17;;;;;;;4.80;4.40;;;6.30;46.10;;;;;;5011217;28;20197;-65
2020/12/31 00:29:42;;;;;;;4.93;4.43;;;6.30;46.20;;;;;;5011447;28;20294;-65
2020/12/31 00:32:08;;;;;;;4.90;4.60;;;6.20;44.60;;;;;;5011298;28;20665;-65
2020/12/31 00:34:34;;;;;;;4.10;3.80;;;6.10;45.50;;;;;;5011357;28;20204;-66
2020/12/31 00:36:59;;;;;;;4.30;4.00;;;6.10;45.40;;;;;;5011657;28;20215;-65
2020/12/31 00:39:25;;;;;;;4.43;4.03;;;6.10;45.40;;;;;;5011307;28;20426;-66
2020/12/31 00:41:50;;;;;;;3.83;3.63;;;6.10;45.90;;;;;;5011317;28;20183;-66
2020/12/31 00:44:16;;;;;;;3.77;3.53;;;6.20;45.80;;;;;;5011202;28;20197;-65
2020/12/31 00:46:41;;;;;;;3.43;3.13;;;6.20;44.50;;;;;;5011167;28;20205;-65
2020/12/31 00:49:07;;;;;;;4.13;3.83;;;6.30;43.70;;;;;;5011055;28;20179;-65
2020/12/31 00:51:33;;;;;;;4.17;3.77;;;6.20;44.40;;;;;;5011268;28;20178;-66
2020/12/31 00:53:59;;;;;;;3.77;3.47;;;6.00;44.40;;;;;;5011095;28;20826;-65
2020/12/31 00:56:24;;;;;;;3.50;3.30;;;5.70;45.90;;;;;;5011104;28;20170;-65
2020/12/31 00:58:50;;;;;;;4.17;3.87;;;5.60;46.70;;;;;;5010856;28;20211;-66
2020/12/31 01:01:16;;;;;;;3.23;3.03;;;5.90;45.70;;;;;;5011150;28;20173;-66
2020/12/31 01:03:41;;;;;;;3.17;2.97;;;5.90;45.60;;;;;;5010910;28;20767;-65
2020/12/31 01:06:07;;;;;;;3.60;3.40;;;5.80;45.20;;;;;;5011124;28;20173;-65
2020/12/31 01:08:33;;;;;;;3.77;3.47;;;6.00;45.40;;;;;;5010779;28;20207;-65
2020/12/31 01:10:58;;;;;;;3.10;2.90;;;6.00;44.50;;;;;;5010918;28;20409;-65
2020/12/31 01:13:24;;;;;;;3.63;3.33;;;6.10;44.90;;;;;;5010969;28;20799;-66
2020/12/31 01:15:49;;;;;;;3.60;3.40;;;6.40;44.40;;;;;;5010979;28;20690;-65
2020/12/31 01:18:15;;;;;;;3.60;3.30;;;6.40;43.40;;;;;;5010694;28;20231;-65
2020/12/31 01:20:40;;;;;;;3.00;2.80;;;6.10;44.00;;;;;;5010919;28;20650;-66
2020/12/31 01:23:06;;;;;;;4.03;3.77;;;6.00;43.50;;;;;;5010817;28;20208;-66
2020/12/31 01:25:33;;;;;;;3.20;2.83;;;6.10;43.20;;;;;;5010797;28;20188;-65
2020/12/31 01:27:58;;;;;;;3.70;3.40;;;6.10;42.20;;;;;;5010734;28;20969;-66
2020/12/31 01:30:24;;;;;;;3.70;3.40;;;6.10;42.90;;;;;;5010877;28;20419;-66
2020/12/31 01:32:49;;;;;;;3.50;3.20;;;5.90;42.60;;;;;;5010954;28;20188;-65
2020/12/31 01:35:15;;;;;;;3.30;3.10;;;5.80;43.60;;;;;;5010811;28;20615;-65
2020/12/31 01:37:40;;;;;;;3.00;2.80;;;5.80;43.00;;;;;;5014215;28;20184;-65
2020/12/31 01:40:06;;;;;;;3.30;3.10;;;6.00;43.70;;;;;;5014403;28;20180;-65
2020/12/31 01:42:31;;;;;;;3.80;3.60;;;6.00;42.90;;;;;;5014593;28;20310;-65
2020/12/31 01:44:57;;;;;;;3.70;3.40;;;5.80;43.60;;;;;;5014436;28;20750;-66
2020/12/31 01:47:22;;;;;;;4.03;3.17;;;5.80;43.50;;;;;;5014048;28;20191;-65
2020/12/31 01:49:49;;;;;;;3.97;3.57;;;5.90;43.50;;;;;;5014457;28;20177;-66
2020/12/31 01:52:15;;;;;;;3.73;3.43;;;6.10;42.80;;;;;;5014274;28;20187;-65
2020/12/31 01:54:44;;;;;;;3.77;3.37;;;5.90;43.40;;;;;;5014491;28;20431;-65
2020/12/31 01:57:10;;;;;;;3.13;2.93;;;5.70;43.80;;;;;;5014138;28;20953;-65
2020/12/31 01:59:35;;;;;;;3.60;3.30;;;5.60;44.50;;;;;;5014253;28;20439;-65
2020/12/31 02:02:01;;;;;;;3.50;3.30;;;5.50;44.40;;;;;;5014172;28;20216;-65
2020/12/31 02:04:27;;;;;;;4.03;3.77;;;5.50;45.40;;;;;;5014081;28;20752;-65
2020/12/31 02:06:54;;;;;;;3.90;3.60;;;5.40;45.60;;;;;;5013975;28;20288;-65
2020/12/31 02:09:19;;;;;;;3.70;3.47;;;5.20;45.40;;;;;;5013835;28;20176;-65
2020/12/31 02:11:45;;;;;;;4.40;4.10;;;5.40;45.70;;;;;;5013861;28;20420;-66
2020/12/31 02:14:10;;;;;;;4.63;4.33;;;5.20;45.40;;;;;;5013839;28;20200;-65
2020/12/31 02:16:40;;;;;;;3.80;3.50;;;5.20;45.80;;;;;;5013793;28;20204;-65
2020/12/31 02:19:06;;;;;;;3.93;3.63;;;5.30;45.10;;;;;;5013670;28;20307;-65
2020/12/31 02:21:33;;;;;;;4.13;3.83;;;5.20;46.20;;;;;;5013713;28;20511;-65
2020/12/31 02:24:01;;;;;;;4.07;3.67;;;5.40;47.10;;;;;;5013527;28;20207;-64
2020/12/31 02:26:29;;;;;;;4.23;3.90;;;5.60;45.00;;;;;;5013612;28;20424;-65
2020/12/31 02:28:55;;;;;;;3.90;3.60;;;5.80;42.80;;;;;;5013384;28;20412;-65
2020/12/31 02:31:23;;;;;;;4.70;4.30;;;6.00;41.50;;;;;;5013577;28;20438;-65
2020/12/31 02:33:50;;;;;;;4.33;4.03;;;6.00;40.90;;;;;;5013451;28;20935;-65
2020/12/31 02:36:17;;;;;;;4.50;4.10;;;5.90;41.60;;;;;;5013413;28;20413;-65
2020/12/31 02:38:44;;;;;;;7.03;4.43;;;6.00;40.80;;;;;;5013260;28;21144;-65
2020/12/31 02:41:09;;;;;;;4.03;3.70;;;5.80;40.40;;;;;;5013418;28;20463;-65
2020/12/31 02:43:36;;;;;;;3.80;3.60;;;6.00;40.70;;;;;;5013201;28;20431;-65
2020/12/31 02:46:05;;;;;;;3.70;3.40;;;5.80;40.50;;;;;;5013287;28;20167;-65
2020/12/31 02:48:31;;;;;;;4.30;3.93;;;5.90;39.60;;;;;;5012313;28;20467;-64
2020/12/31 02:50:57;;;;;;;4.70;4.30;;;5.70;39.00;;;;;;5013216;28;20433;-65
2020/12/31 02:53:22;;;;;;;4.17;3.87;;;5.90;39.70;;;;;;5013126;28;20548;-65
2020/12/31 02:55:48;;;;;;;3.90;3.70;;;6.00;40.00;;;;;;5013107;28;20205;-65
2020/12/31 02:58:13;;;;;;;4.03;3.63;;;5.80;40.10;;;;;;5012872;28;20648;-65
2020/12/31 03:00:39;;;;;;;3.90;3.60;;;6.00;39.20;;;;;;5013115;28;20177;-65
2020/12/31 03:03:04;;;;;;;4.40;4.10;;;5.60;40.20;;;;;;5012904;28;20714;-65
2020/12/31 03:05:30;;;;;;;4.20;3.80;;;5.80;39.90;;;;;;5012878;28;20679;-65
2020/12/31 03:07:56;;;;;;;5.17;4.67;;;5.60;40.00;;;;;;5012685;28;20205;-65
2020/12/31 03:10:21;;;;;;;4.87;4.57;;;5.60;40.50;;;;;;5012876;28;20177;-65
2020/12/31 03:12:47;;;;;;;5.10;4.70;;;5.50;40.40;;;;;;5012791;28;20181;-65
2020/12/31 03:15:15;;;;;;;4.50;4.10;;;5.70;41.40;;;;;;5012860;28;20195;-65
2020/12/31 03:17:40;;;;;;;5.30;4.80;;;5.40;41.40;;;;;;5012640;28;20180;-65
2020/12/31 03:20:06;;;;;;;5.40;4.33;;;5.40;42.00;;;;;;5012740;28;20989;-65
2020/12/31 03:22:33;;;;;;;4.80;4.40;;;5.50;41.30;;;;;;5012549;28;20173;-65
2020/12/31 03:24:58;;;;;;;4.67;4.17;;;5.60;41.70;;;;;;5012469;28;20486;-65
2020/12/31 03:27:24;;;;;;;4.53;4.17;;;5.60;43.10;;;;;;5012275;28;20570;-65
2020/12/31 03:29:50;;;;;;;5.30;4.90;;;5.70;42.50;;;;;;5012463;28;20168;-66
2020/12/31 03:32:15;;;;;;;5.67;5.17;;;6.00;41.10;;;;;;5012436;28;20173;-65
2020/12/31 03:34:41;;;;;;;4.47;4.07;;;6.20;39.80;;;;;;5012302;28;20514;-66
2020/12/31 03:37:07;;;;;;;5.03;4.60;;;6.10;40.40;;;;;;5012125;28;20184;-66
2020/12/31 03:39:33;;;;;;;4.80;4.30;;;6.00;40.10;;;;;;5012301;28;20545;-65
2020/12/31 03:41:58;;;;;;;4.23;3.83;;;6.00;40.60;;;;;;5012150;28;20441;-65
2020/12/31 03:44:23;;;;;;;4.73;4.37;;;5.90;40.40;;;;;;5012113;28;20193;-65
2020/12/31 03:46:49;;;;;;;5.80;4.40;;;6.00;40.60;;;;;;5012146;28;20201;-65
2020/12/31 03:49:15;;;;;;;4.60;4.20;;;5.60;41.30;;;;;;5012125;28;20172;-65
2020/12/31 03:51:40;;;;;;;4.53;4.10;;;5.80;41.10;;;;;;5012068;28;20180;-66
2020/12/31 03:54:06;;;;;;;5.00;4.53;;;5.80;41.00;;;;;;5012121;28;20738;-65
2020/12/31 03:56:31;;;;;;;4.67;4.27;;;5.70;41.10;;;;;;5011879;28;20170;-66
2020/12/31 03:58:57;;;;;;;4.70;4.30;;;5.60;41.70;;;;;;5011775;28;20232;-66
2020/12/31 04:01:29;;;;;;;5.07;4.67;;;5.70;40.70;;;;;;5011880;28;20223;-66
2020/12/31 04:03:55;;;;;;;5.20;4.70;;;5.70;42.10;;;;;;5011889;28;20201;-65
2020/12/31 04:06:21;;;;;;;4.77;4.40;;;5.30;42.20;;;;;;5011802;28;20406;-65
2020/12/31 04:08:46;;;;;;;5.33;4.77;;;5.50;42.90;;;;;;5011723;28;20179;-65
2020/12/31 04:11:12;;;;;;;5.63;4.10;;;5.70;41.50;;;;;;5011744;28;20422;-65
2020/12/31 04:13:37;;;;;;;4.67;4.27;;;5.70;41.10;;;;;;5011776;28;20200;-65
2020/12/31 04:16:02;;;;;;;4.27;3.97;;;5.70;40.90;;;;;;5011878;28;20176;-65
2020/12/31 04:18:28;;;;;;;4.83;4.43;;;5.50;41.70;;;;;;5011620;28;20192;-65
2020/12/31 04:20:53;;;;;;;5.27;4.77;;;5.40;42.90;;;;;;5011761;28;20674;-65
2020/12/31 04:23:19;;;;;;;4.60;3.87;;;5.70;41.30;;;;;;5011679;28;20176;-65
2020/12/31 04:25:44;;;;;;;4.33;3.93;;;5.40;41.80;;;;;;5011620;28;20193;-65
2020/12/31 04:28:10;;;;;;;5.13;4.73;;;5.20;41.80;;;;;;5011527;28;20716;-65
2020/12/31 04:30:36;;;;;;;5.47;4.97;;;5.20;42.30;;;;;;5011587;28;20304;-65
2020/12/31 04:33:01;;;;;;;4.83;4.53;;;5.40;41.80;;;;;;5011464;28;20415;-65
2020/12/31 04:35:27;;;;;;;10.23;5.30;;;5.60;41.40;;;;;;5011268;28;20586;-65
2020/12/31 04:37:52;;;;;;;5.30;4.80;;;5.60;42.50;;;;;;5011190;28;20176;-65
2020/12/31 04:40:18;;;;;;;5.00;4.60;;;5.60;42.00;;;;;;5011217;28;20266;-65
2020/12/31 04:42:44;;;;;;;4.17;3.87;;;5.40;41.40;;;;;;5011322;28;20181;-65
2020/12/31 04:45:10;;;;;;;4.23;3.93;;;5.20;43.00;;;;;;5011168;28;20809;-65
2020/12/31 04:47:44;;;;;;;4.00;3.70;;;5.00;43.20;;;;;;5010887;28;20464;-65
2020/12/31 04:50:11;;;;;;;4.80;4.30;;;5.00;43.40;;;;;;5011233;28;20411;-65
2020/12/31 04:52:37;;;;;;;4.83;4.43;;;5.00;42.70;;;;;;5011095;28;20923;-65
2020/12/31 04:55:02;;;;;;;4.90;4.50;;;5.40;42.30;;;;;;5011111;28;20435;-65
2020/12/31 04:57:28;;;;;;;4.30;4.00;;;5.70;40.80;;;;;;5010893;28;20176;-65
2020/12/31 04:59:54;;;;;;;4.30;4.00;;;5.90;39.20;;;;;;5010991;28;20188;-65
2020/12/31 05:02:19;;;;;;;4.17;3.83;;;5.60;39.00;;;;;;5011083;28;20545;-65
2020/12/31 05:04:46;;;;;;;3.33;3.03;;;5.30;40.00;;;;;;5011026;28;20429;-65
2020/12/31 05:07:13;;;;;;;4.53;4.10;;;5.20;38.70;;;;;;5010769;28;20205;-65
2020/12/31 05:09:38;;;;;;;4.47;4.07;;;5.30;39.20;;;;;;5011051;28;20416;-65
2020/12/31 05:12:04;;;;;;;3.80;3.50;;;5.30;37.90;;;;;;5013722;28;20406;-65
2020/12/31 05:14:34;;;;;;;3.37;3.17;;;5.30;36.00;;;;;;5014929;28;20191;-65
2020/12/31 05:17:21;;;;;;;3.77;3.47;;;5.30;36.20;;;;;;5014856;28;20259;-65
2020/12/31 05:19:46;;;;;;;3.70;3.40;;;5.00;37.00;;;;;;5014973;28;20440;-64
2020/12/31 05:22:17;;;;;;;3.73;3.43;;;5.20;36.60;;;;;;5014869;28;20415;-65
2020/12/31 05:24:45;;;;;;;3.77;3.47;;;5.30;37.60;;;;;;5014630;28;20266;-65
2020/12/31 05:27:28;;;;;;;3.03;2.83;;;5.60;35.60;;;;;;5014687;28;20456;-65
2020/12/31 05:30:04;;;;;;;3.33;3.13;;;5.50;34.50;;;;;;5014818;28;21013;-65
2020/12/31 05:32:37;;;;;;;3.50;3.20;;;5.10;35.00;;;;;;5014931;28;20454;-64
2020/12/31 05:35:11;;;;;;;3.17;2.97;;;5.00;36.50;;;;;;5014554;28;20633;-65
2020/12/31 05:37:36;;;;;;;3.40;3.20;;;5.20;35.10;;;;;;5014405;28;20461;-65
2020/12/31 05:40:09;;;;;;;2.53;2.43;;;5.10;35.90;;;;;;5014588;28;20447;-64
2020/12/31 05:42:37;;;;;;;7.70;3.30;;;5.00;35.80;;;;;;5014581;28;20180;-65
2020/12/31 05:45:08;;;;;;;3.10;2.90;;;4.90;35.10;;;;;;5014527;28;20531;-65
2020/12/31 05:47:35;;;;;;;3.23;3.00;;;5.00;35.20;;;;;;5014313;28;20454;-65
2020/12/31 05:50:17;;;;;;;3.20;3.00;;;5.10;35.00;;;;;;5014538;28;20404;-65
2020/12/31 05:52:42;;;;;;;3.40;3.20;;;4.90;36.20;;;;;;5014511;28;20504;-65
2020/12/31 05:55:08;;;;;;;3.53;3.30;;;5.10;36.20;;;;;;5014259;28;20954;-65
2020/12/31 05:57:45;;;;;;;3.97;3.67;;;5.10;34.90;;;;;;5014140;28;20837;-65
2020/12/31 06:00:22;;;;;;;3.10;2.90;;;5.00;35.10;;;;;;5014240;28;20435;-65
2020/12/31 06:02:52;;;;;;;4.03;3.73;;;5.10;35.20;;;;;;5014248;28;20400;-65
2020/12/31 06:05:19;;;;;;;3.90;3.60;;;5.00;35.30;;;;;;5014084;28;20518;-65
2020/12/31 06:07:46;;;;;;;2.93;2.83;;;5.00;35.40;;;;;;5013812;28;20559;-65
2020/12/31 06:10:17;;;;;;;3.03;2.83;;;5.10;35.80;;;;;;5014071;28;20404;-65
2020/12/31 06:12:49;;;;;;;3.93;3.63;;;5.10;34.70;;;;;;5014084;28;20412;-65
2020/12/31 06:15:21;;;;;;;3.43;3.23;;;4.90;35.60;;;;;;5013900;28;20531;-65
2020/12/31 06:17:48;;;;;;;4.30;3.90;;;5.00;35.80;;;;;;5013561;28;20911;-65
2020/12/31 06:20:16;;;;;;;3.20;3.00;;;5.20;34.80;;;;;;5012006;28;20938;-65
2020/12/31 06:23:07;;;;;;;3.57;3.37;;;5.10;34.80;;;;;;5009568;28;20424;-65
2020/12/31 06:25:37;;;;;;;3.40;3.10;;;5.10;34.60;;;;;;5010709;28;20505;-65
2020/12/31 06:28:13;;;;;;;3.50;3.20;;;5.10;35.10;;;;;;5011810;28;20545;-65
2020/12/31 06:30:46;;;;;;;3.43;3.20;;;5.20;34.40;;;;;;5011680;28;20967;-64
2020/12/31 06:33:14;;;;;;;3.17;2.93;;;5.20;35.30;;;;;;5011805;28;20899;-65
2020/12/31 06:35:40;;;;;;;3.37;3.17;;;5.10;34.50;;;;;;5013572;28;20404;-65
2020/12/31 06:38:06;;;;;;;3.87;3.47;;;5.20;34.40;;;;;;5013306;28;20414;-65
2020/12/31 06:40:34;;;;;;;3.80;3.50;;;5.20;33.90;;;;;;5012937;28;20419;-65
2020/12/31 06:43:09;;;;;;;3.50;3.20;;;5.10;35.90;;;;;;5008776;28;20899;-64
2020/12/31 06:45:47;;;;;;;3.93;3.60;;;5.10;34.60;;;;;;5012498;28;20786;-65
2020/12/31 06:48:27;;;;;;;3.60;3.30;;;5.00;34.70;;;;;;5012767;28;20562;-64
2020/12/31 06:50:58;;;;;;;4.10;3.80;;;5.00;34.50;;;;;;5012888;28;20411;-65
2020/12/31 06:53:44;;;;;;;4.23;3.90;;;5.20;34.80;;;;;;5012538;28;20911;-65
2020/12/31 06:56:10;;;;;;;5.10;3.93;;;5.10;34.10;;;;;;5012812;28;20515;-65
2020/12/31 06:58:38;;;;;;;3.73;3.50;;;5.10;35.20;;;;;;5012218;28;20515;-66
2020/12/31 07:01:28;;;;;;;4.40;4.00;;;5.00;35.30;;;;;;5012474;28;20448;-65
2020/12/31 07:03:55;;;;;;;3.83;3.53;;;5.10;35.30;;;;;;5012492;28;20436;-65
2020/12/31 07:06:21;;;;;;;3.63;3.33;;;4.90;35.10;;;;;;5012616;28;20409;-65
2020/12/31 07:08:47;;;;;;;4.83;4.43;;;4.80;36.10;;;;;;5012103;28;20468;-65
2020/12/31 07:11:12;;;;;;;5.00;4.50;;;4.60;36.70;;;;;;5012481;28;20173;-66
2020/12/31 07:13:40;;;;;;;5.10;4.60;;;4.50;36.80;;;;;;5012313;28;20424;-65
2020/12/31 07:16:06;;;;;;;5.10;4.70;;;4.50;36.90;;;;;;5012144;28;20185;-65
2020/12/31 07:18:34;;;;;;;4.80;4.40;;;4.60;37.00;;;;;;5012133;28;20424;-65
2020/12/31 07:21:00;;;;;;;4.83;4.43;;;4.50;36.80;;;;;;5012494;28;20498;-66
2020/12/31 07:23:39;;;;;;;5.20;4.70;;;4.60;37.10;;;;;;5012024;28;20456;-66
2020/12/31 07:26:04;;;;;;;5.37;4.87;;;5.00;36.20;;;;;;5012339;28;20929;-66
2020/12/31 07:28:30;;;;;;;4.90;4.50;;;4.70;37.10;;;;;;5011956;28;20456;-66
2020/12/31 07:30:56;;;;;;;6.17;5.67;;;4.60;36.70;;;;;;5011805;28;20439;-67
2020/12/31 07:33:35;;;;;;;5.77;5.20;;;4.70;36.60;;;;;;5011744;28;20171;-66
2020/12/31 07:36:13;;;;;;;5.33;4.93;;;4.80;37.00;;;;;;5011975;28;20169;-66
2020/12/31 07:38:40;;;;;;;5.20;4.77;;;4.60;36.80;;;;;;5012056;28;20416;-65
2020/12/31 07:41:15;;;;;;;6.10;5.60;;;4.90;37.00;;;;;;5010829;28;20777;-66
2020/12/31 07:43:40;;;;;;;6.37;5.77;;;4.80;37.70;;;;;;5010174;28;20524;-66
2020/12/31 07:46:06;;;;;;;5.63;5.23;;;4.70;37.10;;;;;;5010943;28;20936;-65
2020/12/31 07:48:32;;;;;;;4.80;4.40;;;5.00;37.30;;;;;;5010900;28;20300;-66
2020/12/31 07:50:59;;;;;;;5.50;5.10;;;5.10;36.70;;;;;;5011096;28;20173;-65
2020/12/31 07:53:31;;;;;;;6.13;5.63;;;5.10;35.80;;;;;;5011050;28;20416;-66
2020/12/31 07:55:57;;;;;;;6.37;5.77;;;5.10;36.40;;;;;;5011778;28;20413;-65
2020/12/31 07:58:25;;;;;;;5.87;5.30;;;5.10;36.10;;;;;;5012092;28;20420;-66
2020/12/31 08:01:02;;;;;;;7.80;6.23;;;5.10;36.60;;;;;;5011948;28;20443;-66
2020/12/31 08:03:28;;;;;;;5.67;5.17;;;5.10;36.40;;;;;;5011939;28;20507;-66
2020/12/31 08:06:00;;;;;;;5.70;5.10;;;5.00;36.70;;;;;;5011885;28;20503;-66
2020/12/31 08:08:26;;;;;;;5.20;4.70;;;4.90;37.10;;;;;;5011560;28;20276;-66
2020/12/31 08:10:52;;;;;;;5.90;5.40;;;5.00;37.40;;;;;;5012044;28;20420;-66
2020/12/31 08:13:18;;;;;;;5.00;4.60;;;5.00;37.60;;;;;;5011670;28;20404;-66
2020/12/31 08:15:50;;;;;;;6.80;6.20;;;4.90;37.10;;;;;;5011658;28;20747;-66
2020/12/31 08:18:17;;;;;;;6.27;5.77;;;4.80;37.80;;;;;;5011866;28;20177;-65
2020/12/31 08:20:43;;;;;;;6.37;5.70;;;5.20;37.70;;;;;;5011646;28;20420;-66
2020/12/31 08:23:17;;;;;;;6.10;5.63;;;5.40;36.40;;;;;;5011482;28;20490;-65
2020/12/31 08:25:44;;;;;;;6.30;5.80;;;5.60;36.80;;;;;;5010275;28;20850;-65
2020/12/31 08:28:10;;;;;;;6.43;5.93;;;5.70;36.00;;;;;;5011510;28;20459;-66
2020/12/31 08:30:37;;;;;;;6.93;6.33;;;5.80;35.70;;;;;;5011390;28;20491;-67
2020/12/31 08:33:06;;;;;;;6.07;5.57;;;5.70;35.10;;;;;;5011398;28;20777;-67
2020/12/31 08:35:43;;;;;;;5.33;4.93;;;5.70;34.50;;;;;;5011721;28;20408;-67
2020/12/31 08:38:09;;;;;;;6.40;5.80;;;5.60;35.10;;;;;;5011168;28;20759;-66
2020/12/31 08:40:50;;;;;;;6.07;5.57;;;5.60;35.30;;;;;;5011378;28;20423;-67
2020/12/31 08:43:16;;;;;;;5.80;5.37;;;5.80;35.00;;;;;;5011208;28;20434;-66
2020/12/31 08:45:43;;;;;;;6.37;5.87;;;5.80;35.20;;;;;;5010475;28;20933;-65
2020/12/31 08:48:14;;;;;;;6.37;5.83;;;5.70;35.10;;;;;;5010833;28;20458;-66
2020/12/31 08:50:40;;;;;;;6.17;5.67;;;5.60;35.60;;;;;;5011184;28;20837;-66
2020/12/31 08:53:05;;;;;;;6.20;5.80;;;5.50;35.60;;;;;;5011244;28;20398;-66
2020/12/31 08:55:35;;;;;;;6.00;5.50;;;5.50;36.00;;;;;;5011149;28;20417;-65
2020/12/31 08:58:14;;;;;;;6.20;5.70;;;5.60;35.50;;;;;;5010933;28;20175;-66
2020/12/31 09:00:40;;;;;;;5.87;5.37;;;5.60;36.00;;;;;;5010861;28;20465;-66
2020/12/31 09:03:05;;;;;;;6.60;6.00;;;5.30;37.10;;;;;;5011132;28;20769;-66
2020/12/31 09:05:31;;;;;;;6.07;5.57;;;5.40;36.70;;;;;;5010941;28;20431;-65
2020/12/31 09:08:08;;;;;;;5.90;5.37;;;5.50;35.90;;;;;;5010671;28;20742;-66
2020/12/31 09:10:37;;;;;;;6.77;5.80;;;5.80;36.00;;;;;;5010753;28;20183;-66
2020/12/31 09:13:04;;;;;;;6.50;5.90;;;5.90;35.90;;;;;;5010720;28;20510;-66
2020/12/31 09:15:30;;;;;;;6.80;6.20;;;5.80;35.00;;;;;;5010765;28;20511;-66
2020/12/31 09:17:56;;;;;;;7.20;6.40;;;5.70;35.20;;;;;;5010759;28;20488;-66
2020/12/31 09:20:27;;;;;;;7.07;6.40;;;5.70;35.90;;;;;;5010881;28;20499;-68
2020/12/31 09:23:07;;;;;;;10.93;6.50;;;6.00;42.40;;;;;;5010976;28;20445;-68
2020/12/31 09:25:32;;;;;;;5.67;5.10;;;6.20;41.20;;;;;;5010800;28;20443;-68
2020/12/31 09:27:58;;;;;;;5.63;5.13;;;6.30;41.20;;;;;;5010511;28;20467;-67
2020/12/31 09:30:29;;;;;;;6.20;5.60;;;6.70;38.70;;;;;;5010862;28;20171;-68
2020/12/31 09:32:54;;;;;;;6.33;5.77;;;6.70;43.90;;;;;;5011046;28;20168;-68
2020/12/31 09:35:20;;;;;;;5.83;5.37;;;6.60;37.80;;;;;;5008198;28;20585;-68
2020/12/31 09:37:51;;;;;;;6.30;5.80;;;6.90;38.70;;;;;;5009149;28;20604;-68
2020/12/31 09:40:17;;;;;;;6.13;5.63;;;6.70;36.50;;;;;;5010253;28;20181;-68
2020/12/31 09:42:43;;;;;;;6.50;5.97;;;7.60;36.40;;;;;;5010365;28;20416;-65
2020/12/31 09:45:09;;;;;;;7.20;6.60;;;7.20;31.80;;;;;;5010446;28;20502;-65
2020/12/31 09:47:34;;;;;;;6.80;6.20;;;6.40;33.30;;;;;;5010001;28;20454;-66
2020/12/31 09:50:00;;;;;;;6.33;5.83;;;5.70;35.30;;;;;;5010418;28;20680;-66
2020/12/31 09:52:26;;;;;;;7.23;6.53;;;5.60;36.70;;;;;;5010079;28;20176;-65
2020/12/31 09:54:51;;;;;;;7.13;6.43;;;5.80;36.80;;;;;;5009923;28;20197;-65
2020/12/31 09:57:17;;;;;;;7.90;6.80;;;5.40;36.50;;;;;;5011251;28;20188;-65
2020/12/31 09:59:42;;;;;;;6.77;6.13;;;5.40;37.40;;;;;;5013606;28;20182;-66
2020/12/31 10:02:08;;;;;;;6.93;6.30;;;5.80;36.70;;;;;;5013602;28;20277;-66
2020/12/31 10:04:34;;;;;;;6.93;6.40;;;6.10;36.20;;;;;;5013641;28;20207;-66
2020/12/31 10:06:59;;;;;;;7.17;6.50;;;5.90;36.10;;;;;;5013500;28;20545;-66
2020/12/31 10:09:25;;;;;;;6.53;6.03;;;6.10;36.10;;;;;;5013149;28;20170;-67
2020/12/31 10:11:54;;;;;;;5.30;4.97;;;5.90;36.10;;;;;;5013545;28;20177;-67
2020/12/31 10:14:20;;;;;;;5.87;5.37;;;5.60;36.20;;;;;;5013531;28;20181;-66
2020/12/31 10:16:45;;;;;;;6.10;5.60;;;5.40;37.70;;;;;;5012823;28;21037;-67
2020/12/31 10:19:11;;;;;;;5.30;4.90;;;5.50;38.20;;;;;;5012902;28;20495;-66
2020/12/31 10:21:36;;;;;;;6.23;5.73;;;5.60;36.80;;;;;;5013429;28;20173;-68
2020/12/31 10:24:03;;;;;;;6.43;5.90;;;5.50;37.00;;;;;;5013117;28;20208;-66
2020/12/31 10:26:28;;;;;;;5.57;5.17;;;5.50;38.00;;;;;;5013766;28;20546;-65
2020/12/31 10:28:54;;;;;;;5.50;5.00;;;5.90;36.80;;;;;;5014136;28;20455;-66
2020/12/31 10:31:20;;;;;;;5.63;5.13;;;5.70;36.70;;;;;;5013763;28;20235;-66
2020/12/31 10:33:45;;;;;;;13.07;5.80;;;5.90;36.20;;;;;;5013420;28;20204;-67
2020/12/31 10:36:11;;;;;;;5.70;5.20;;;5.90;36.60;;;;;;5013429;28;20173;-66
2020/12/31 10:38:40;;;;;;;5.57;5.07;;;6.00;36.50;;;;;;5012656;28;20197;-67
2020/12/31 10:41:07;;;;;;;7.20;6.60;;;6.00;37.10;;;;;;5012877;28;20215;-65
2020/12/31 10:43:32;;;;;;;5.13;4.73;;;5.80;36.40;;;;;;5012826;28;20446;-65
2020/12/31 10:45:58;;;;;;;4.47;4.17;;;5.80;36.20;;;;;;5012827;28;20496;-65
2020/12/31 10:48:24;;;;;;;4.43;4.03;;;6.00;36.60;;;;;;5012512;28;20292;-66
2020/12/31 10:50:50;;;;;;;4.90;4.50;;;5.80;37.40;;;;;;5013009;28;20224;-66
2020/12/31 10:53:15;;;;;;;4.87;4.47;;;6.00;39.30;;;;;;5012637;28;20507;-67
2020/12/31 10:55:41;;;;;;;4.80;4.40;;;5.60;42.50;;;;;;5012729;28;20208;-65
2020/12/31 10:58:06;;;;;;;5.20;4.80;;;5.90;42.70;;;;;;5012961;28;20640;-65
2020/12/31 11:00:32;;;;;;;5.00;4.47;;;6.00;43.10;;;;;;5012831;28;20177;-67
2020/12/31 11:02:57;;;;;;;5.10;4.60;;;5.40;44.80;;;;;;5012568;28;20542;-66
2020/12/31 11:05:23;;;;;;;4.73;4.40;;;5.30;45.60;;;;;;5012682;28;20555;-65
2020/12/31 11:07:48;;;;;;;5.03;4.63;;;5.50;44.80;;;;;;5012310;28;20240;-65
2020/12/31 11:10:14;;;;;;;4.30;4.00;;;5.50;45.10;;;;;;5011720;28;20545;-66
2020/12/31 11:12:39;;;;;;;5.10;4.70;;;4.90;46.50;;;;;;5012518;28;20170;-66
2020/12/31 11:15:05;;;;;;;5.27;4.80;;;5.00;47.80;;;;;;5012411;28;20194;-65
2020/12/31 11:17:30;;;;;;;5.37;4.97;;;4.70;48.00;;;;;;5012110;28;20173;-64
2020/12/31 11:19:56;;;;;;;5.70;5.13;;;4.80;47.60;;;;;;5012367;28;20205;-66
2020/12/31 11:22:21;;;;;;;5.47;4.83;;;5.00;48.30;;;;;;5006736;28;20189;-66
2020/12/31 11:24:47;;;;;;;4.53;4.13;;;5.00;47.30;;;;;;5004732;28;20217;-64
2020/12/31 11:27:12;;;;;;;5.63;5.13;;;4.90;48.00;;;;;;5006545;28;20618;-66
2020/12/31 11:29:38;;;;;;;6.10;5.50;;;5.10;47.70;;;;;;5007027;28;20182;-67
2020/12/31 11:32:04;;;;;;;4.80;4.40;;;5.00;47.60;;;;;;5008503;28;20671;-67
2020/12/31 11:34:29;;;;;;;5.60;4.63;;;5.10;47.70;;;;;;5010618;28;20240;-66
2020/12/31 11:36:55;;;;;;;5.97;5.30;;;5.10;46.30;;;;;;5010244;28;20178;-67
2020/12/31 11:39:22;;;;;;;5.70;5.20;;;5.10;47.60;;;;;;5009833;28;20671;-66
2020/12/31 11:41:50;;;;;;;4.90;4.50;;;5.30;48.40;;;;;;5010304;28;20424;-66
2020/12/31 11:44:16;;;;;;;5.13;4.67;;;5.30;46.00;;;;;;5007637;28;20460;-68
2020/12/31 11:46:45;;;;;;;6.10;5.10;;;5.30;46.90;;;;;;5003579;28;20434;-67
2020/12/31 11:49:10;;;;;;;5.10;4.70;;;5.70;46.20;;;;;;5009457;28;20174;-67
2020/12/31 11:51:36;;;;;;;6.30;5.80;;;5.60;45.00;;;;;;5008983;28;21115;-65
2020/12/31 11:54:01;;;;;;;5.97;5.50;;;5.50;46.10;;;;;;5008637;28;20225;-65
2020/12/31 11:56:27;;;;;;;5.70;5.20;;;5.80;45.40;;;;;;5010180;28;20177;-66
2020/12/31 11:58:52;;;;;;;5.40;4.90;;;5.80;44.60;;;;;;5009937;28;20187;-65
2020/12/31 12:01:18;;;;;;;6.20;5.70;;;5.80;44.30;;;;;;5009668;28;20183;-64
2020/12/31 12:03:46;;;;;;;5.70;5.20;;;5.80;44.40;;;;;;5010050;28;20197;-66
2020/12/31 12:06:12;;;;;;;6.33;5.73;;;5.70;43.60;;;;;;5009903;28;20174;-65
2020/12/31 12:08:37;;;;;;;6.47;5.87;;;5.50;44.80;;;;;;5009476;28;20471;-64
2020/12/31 12:11:03;;;;;;;6.17;5.63;;;5.60;45.20;;;;;;5010079;28;20552;-64
2020/12/31 12:13:28;;;;;;;5.30;4.77;;;5.40;45.50;;;;;;5009844;28;20834;-65
2020/12/31 12:15:54;;;;;;;6.20;5.60;;;5.50;45.30;;;;;;5009551;28;20533;-64
2020/12/31 12:18:19;;;;;;;5.70;5.20;;;5.60;45.40;;;;;;5009066;28;20170;-65
2020/12/31 12:20:48;;;;;;;6.23;5.63;;;5.50;45.90;;;;;;5008186;28;20177;-64
2020/12/31 12:23:14;;;;;;;7.27;6.57;;;5.80;45.70;;;;;;5007768;28;20727;-63
2020/12/31 12:25:40;;;;;;;6.37;5.77;;;6.00;44.70;;;;;;5009090;28;20479;-64
2020/12/31 12:28:05;;;;;;;5.70;4.83;;;5.90;44.70;;;;;;5008975;28;20205;-65
2020/12/31 12:30:31;;;;;;;5.30;4.90;;;5.90;43.80;;;;;;5009356;28;20252;-64
2020/12/31 12:32:56;;;;;;;5.70;5.30;;;6.00;43.90;;;;;;5009653;28;20704;-64
2020/12/31 12:35:22;;;;;;;5.33;4.93;;;6.00;42.60;;;;;;5009355;28;20200;-65
2020/12/31 12:37:47;;;;;;;5.20;4.77;;;5.80;44.10;;;;;;5008032;28;20173;-67
2020/12/31 12:40:13;;;;;;;5.40;5.00;;;5.90;44.20;;;;;;5007611;28;20558;-65
2020/12/31 12:42:39;;;;;;;6.23;5.63;;;5.80;44.10;;;;;;5007100;28;20232;-65
2020/12/31 12:45:06;;;;;;;5.77;5.30;;;6.20;43.80;;;;;;5008904;28;20207;-65
2020/12/31 12:47:39;;;;;;;5.67;5.00;;;6.00;43.00;;;;;;4988734;28;20203;-65
2020/12/31 12:50:07;;;;;;;5.07;4.67;;;6.30;42.90;;;;;;4988107;28;20410;-65
2020/12/31 12:52:33;;;;;;;5.67;5.13;;;6.20;41.70;;;;;;4988082;28;20411;-65
2020/12/31 12:54:59;;;;;;;5.97;5.20;;;6.40;42.00;;;;;;4988598;28;20426;-65
2020/12/31 12:57:25;;;;;;;5.33;4.93;;;6.00;42.90;;;;;;4989234;28;20177;-65